Time;durP1;ratioP1;P1;durP2;ratioP2;P2;SDS_P1;SDS_P2;PMS_P1;PMS_P2;Temp;Humidity;BMP_temperature;BMP_pressure;BME280_temperature;BME280_humidity;BME280_pressure;Samples;Min_cycle;Max_cycle;Signal;HPM_P1;HPM_P2
2023/06/08 00:00:12;;;;;;;5.93;3.50;;;;;;;19.18;55.78;99642.66;1086538;47;20042;-82
2023/06/08 00:01:15;;;;;;;6.18;3.75;;;;;;;19.24;55.78;99642.88;1086459;47;20027;-84
2023/06/08 00:02:19;;;;;;;5.30;3.45;;;;;;;19.26;55.98;99640.78;1086392;47;20679;-84
2023/06/08 00:03:20;;;;;;;4.63;3.08;;;;;;;19.25;56.19;99645.34;1086624;54;20046;-85
2023/06/08 00:04:30;;;;;;;5.07;3.20;;;;;;;19.20;56.32;99641.63;1086715;54;20046;-82
2023/06/08 00:05:43;;;;;;;5.00;3.65;;;;;;;19.17;57.00;99637.47;1086660;54;20065;-85
2023/06/08 00:06:48;;;;;;;5.10;3.22;;;;;;;19.14;56.98;99641.44;1087253;39;20672;-82
2023/06/08 00:07:49;;;;;;;4.63;2.72;;;;;;;19.16;56.85;99635.78;1087015;54;20053;-82
2023/06/08 00:08:53;;;;;;;4.53;2.85;;;;;;;19.18;56.96;99639.94;1086729;47;20069;-83
2023/06/08 00:09:54;;;;;;;4.20;2.55;;;;;;;19.15;56.73;99639.53;1086609;54;20038;-85
2023/06/08 00:10:58;;;;;;;4.78;3.30;;;;;;;19.14;56.89;99636.00;1086280;47;20038;-84
2023/06/08 00:11:59;;;;;;;4.63;2.92;;;;;;;19.08;56.95;99638.72;1086723;47;20102;-83
2023/06/08 00:13:04;;;;;;;5.10;3.22;;;;;;;19.07;57.10;99631.63;1086767;54;20026;-85
2023/06/08 00:14:06;;;;;;;5.95;3.50;;;;;;;19.01;57.41;99641.44;1086747;47;20031;-84
2023/06/08 00:15:13;;;;;;;5.28;3.55;;;;;;;19.03;57.46;99642.06;1086944;47;20082;-86
2023/06/08 00:16:14;;;;;;;6.75;4.20;;;;;;;18.81;57.71;99636.84;1086925;54;20038;-85
2023/06/08 00:17:18;;;;;;;7.13;3.50;;;;;;;18.79;57.41;99638.94;1086549;47;20090;-82
2023/06/08 00:18:19;;;;;;;10.75;3.80;;;;;;;18.81;57.29;99644.97;1086717;47;20039;-84
2023/06/08 00:19:24;;;;;;;7.13;3.55;;;;;;;18.73;57.07;99637.06;1086733;47;20093;-83
2023/06/08 00:20:26;;;;;;;7.63;3.78;;;;;;;18.64;57.52;99632.88;1087910;39;20582;-85
2023/06/08 00:21:33;;;;;;;8.05;4.20;;;;;;;18.54;57.53;99634.13;1086933;47;20046;-85
2023/06/08 00:22:36;;;;;;;5.78;3.50;;;;;;;18.54;57.40;99636.03;1086634;54;20038;-83
2023/06/08 00:23:40;;;;;;;6.82;3.70;;;;;;;18.47;57.46;99632.44;1086893;47;20038;-82
2023/06/08 00:24:41;;;;;;;5.78;3.63;;;;;;;18.49;57.17;99636.63;1086678;47;20033;-84
2023/06/08 00:25:45;;;;;;;7.07;3.60;;;;;;;18.52;57.23;99636.19;1086799;47;20133;-84
2023/06/08 00:26:46;;;;;;;6.18;3.35;;;;;;;18.60;57.08;99631.66;1086708;47;20605;-83
2023/06/08 00:27:50;;;;;;;6.32;3.92;;;;;;;18.53;57.28;99637.06;1086666;47;20046;-84
2023/06/08 00:28:51;;;;;;;5.20;3.35;;;;;;;18.58;57.18;99636.44;1086438;54;20091;-82
2023/06/08 00:29:55;;;;;;;7.00;3.42;;;;;;;18.62;56.81;99634.97;1086589;54;20078;-81
2023/06/08 00:30:56;;;;;;;9.75;4.25;;;;;;;18.61;56.76;99634.13;1086346;54;20031;-83
2023/06/08 00:32:00;;;;;;;7.60;3.70;;;;;;;18.57;57.18;99637.47;1086410;46;20038;-83
2023/06/08 00:33:01;;;;;;;6.40;3.72;;;;;;;18.48;57.44;99640.38;1086636;47;20034;-82
2023/06/08 00:34:05;;;;;;;7.30;3.53;;;;;;;18.47;57.40;99633.28;1086724;54;20022;-83
2023/06/08 00:35:08;;;;;;;4.95;3.05;;;;;;;18.51;57.17;99639.97;1086609;47;20044;-83
2023/06/08 00:36:12;;;;;;;5.93;3.53;;;;;;;18.59;57.08;99636.22;1086550;54;20046;-84
2023/06/08 00:37:15;;;;;;;4.68;3.15;;;;;;;18.66;56.84;99641.63;1086436;47;20026;-81
2023/06/08 00:38:19;;;;;;;4.65;2.95;;;;;;;18.69;56.55;99635.81;1086522;47;20034;-83
2023/06/08 00:39:20;;;;;;;5.20;3.00;;;;;;;18.69;56.74;99635.81;1086385;54;20034;-82
2023/06/08 00:40:24;;;;;;;4.78;3.20;;;;;;;18.70;56.90;99637.47;1086853;54;20103;-83
2023/06/08 00:41:25;;;;;;;5.45;3.40;;;;;;;18.69;56.85;99633.13;1086535;54;20037;-81
2023/06/08 00:42:28;;;;;;;5.93;3.47;;;;;;;18.63;56.95;99633.91;1090074;39;20871;-83
2023/06/08 00:43:30;;;;;;;7.95;3.45;;;;;;;18.63;57.42;99632.06;1086336;47;20033;-83
2023/06/08 00:44:34;;;;;;;7.40;2.85;;;;;;;18.62;57.61;99640.38;1086305;54;20042;-84
2023/06/08 00:45:35;;;;;;;6.13;3.10;;;;;;;18.62;57.70;99635.81;1086169;47;20027;-83
2023/06/08 00:46:39;;;;;;;5.38;2.78;;;;;;;18.61;57.56;99634.13;1086302;54;20034;-83
2023/06/08 00:47:40;;;;;;;5.20;3.35;;;;;;;18.58;57.91;99639.13;1086264;47;20057;-85
2023/06/08 00:48:44;;;;;;;5.20;3.13;;;;;;;18.56;57.95;99642.06;1087650;39;20950;-82
2023/06/08 00:49:47;;;;;;;5.65;3.30;;;;;;;18.61;58.06;99642.25;1086393;47;20031;-81
2023/06/08 00:50:53;;;;;;;4.93;3.25;;;;;;;18.56;58.16;99642.06;1086543;47;20035;-85
2023/06/08 00:51:54;;;;;;;5.95;3.40;;;;;;;18.61;58.36;99638.72;1086498;46;20034;-83
2023/06/08 00:53:01;;;;;;;6.35;3.47;;;;;;;18.62;58.06;99640.38;1086423;47;20109;-83
2023/06/08 00:54:04;;;;;;;6.05;3.47;;;;;;;18.63;57.99;99647.47;1086380;47;20034;-84
2023/06/08 00:55:08;;;;;;;4.63;2.80;;;;;;;18.63;57.97;99647.47;1086438;47;20042;-86
2023/06/08 00:56:11;;;;;;;5.47;3.78;;;;;;;18.63;57.94;99644.75;1086397;54;20150;-83
2023/06/08 00:57:15;;;;;;;4.82;2.90;;;;;;;18.58;58.36;99644.56;1086824;54;20066;-83
2023/06/08 00:58:16;;;;;;;4.65;3.20;;;;;;;18.51;58.75;99639.13;1086976;54;20061;-84
2023/06/08 00:59:21;;;;;;;5.40;3.10;;;;;;;18.54;58.35;99639.53;1086273;47;20022;-82
2023/06/08 01:00:24;;;;;;;5.25;2.90;;;;;;;18.59;58.08;99643.50;1086163;46;20046;-83
2023/06/08 01:01:29;;;;;;;5.30;3.33;;;;;;;18.58;58.23;99639.13;1086031;47;20030;-81
2023/06/08 01:02:30;;;;;;;6.43;3.53;;;;;;;18.52;59.15;99641.63;1086146;54;20049;-83
2023/06/08 01:03:38;;;;;;;5.03;3.03;;;;;;;18.54;58.67;99634.13;1086114;47;20101;-82
2023/06/08 01:04:39;;;;;;;5.00;2.95;;;;;;;18.56;58.99;99633.94;1086267;47;20038;-83
2023/06/08 01:05:43;;;;;;;5.88;3.58;;;;;;;18.59;58.60;99632.69;1086275;47;20046;-84
2023/06/08 01:06:48;;;;;;;5.45;3.25;;;;;;;18.58;58.94;99644.56;1086373;47;20032;-83
2023/06/08 01:08:08;;;;;;;7.18;3.35;;;;;;;18.44;59.60;99636.41;1086973;54;20038;-84
2023/06/08 01:09:24;;;;;;;5.72;3.67;;;;;;;18.31;60.07;99629.09;1087143;47;20030;-84
2023/06/08 01:10:32;;;;;;;7.72;4.03;;;;;;;18.28;59.77;99631.41;1087549;54;20038;-82
2023/06/08 01:11:46;;;;;;;5.53;3.53;;;;;;;18.31;59.68;99645.34;1087356;54;20093;-84
2023/06/08 01:12:57;;;;;;;6.88;4.20;;;;;;;18.32;59.74;99632.66;1086727;47;20045;-83
2023/06/08 01:14:14;;;;;;;6.53;4.00;;;;;;;18.30;59.73;99634.72;1086895;47;20070;-82
2023/06/08 01:15:19;;;;;;;6.75;3.42;;;;;;;18.33;59.65;99631.59;1087716;47;20034;-84
2023/06/08 01:16:24;;;;;;;5.38;3.38;;;;;;;18.36;59.37;99637.47;1087816;54;20035;-83
2023/06/08 01:17:32;;;;;;;4.93;3.30;;;;;;;18.36;59.36;99639.31;1087737;54;20011;-85
2023/06/08 01:18:41;;;;;;;6.45;3.60;;;;;;;18.37;59.68;99632.88;1087786;46;20022;-83
2023/06/08 01:20:05;;;;;;;7.10;3.50;;;;;;;18.32;59.93;99635.38;1087246;54;20049;-84
2023/06/08 01:21:24;;;;;;;5.00;3.28;;;;;;;18.27;59.87;99644.09;1087288;54;20031;-83
2023/06/08 01:22:28;;;;;;;8.43;3.90;;;;;;;18.21;60.13;99634.94;1086593;47;20026;-83
2023/06/08 01:23:46;;;;;;;7.50;3.80;;;;;;;18.14;60.35;99638.66;1086591;47;20027;-83
2023/06/08 01:24:59;;;;;;;5.63;3.70;;;;;;;18.07;60.17;99633.22;1086870;54;20142;-85
2023/06/08 01:26:10;;;;;;;5.75;3.78;;;;;;;18.03;60.40;99637.38;1091981;31;20726;-83
2023/06/08 01:27:14;;;;;;;5.68;3.50;;;;;;;18.00;60.38;99640.47;1087509;39;20574;-83
2023/06/08 01:28:15;;;;;;;7.82;3.83;;;;;;;17.96;60.34;99640.06;1086808;46;20034;-83
2023/06/08 01:29:21;;;;;;;5.28;3.40;;;;;;;17.91;60.12;99640.63;1086737;46;20118;-85
2023/06/08 01:30:22;;;;;;;5.25;3.60;;;;;;;17.92;60.05;99626.09;1086911;47;20058;-83
2023/06/08 01:31:26;;;;;;;5.90;3.95;;;;;;;17.96;59.56;99642.75;1086564;47;20026;-83
2023/06/08 01:32:27;;;;;;;6.32;3.63;;;;;;;17.97;59.35;99638.19;1086777;54;20066;-83
2023/06/08 01:33:32;;;;;;;5.10;3.60;;;;;;;17.92;59.44;99636.06;1086789;54;20050;-83
2023/06/08 01:34:33;;;;;;;5.65;3.55;;;;;;;17.86;59.61;99635.00;1087235;54;20063;-84
2023/06/08 01:35:38;;;;;;;6.07;3.78;;;;;;;17.86;59.55;99631.47;1087428;54;20030;-83
2023/06/08 01:36:49;;;;;;;6.35;3.53;;;;;;;17.89;59.34;99631.88;1087291;54;20038;-83
2023/06/08 01:37:58;;;;;;;5.28;2.95;;;;;;;17.95;58.95;99632.94;1086810;46;20038;-82
2023/06/08 01:39:06;;;;;;;4.95;3.30;;;;;;;17.87;59.19;99636.66;1088902;39;20294;-82
2023/06/08 01:40:22;;;;;;;5.25;3.42;;;;;;;17.84;59.39;99628.97;1086687;54;20030;-83
2023/06/08 01:41:26;;;;;;;4.70;3.05;;;;;;;17.89;59.05;99631.88;1086572;47;20033;-82
2023/06/08 01:42:32;;;;;;;6.05;3.53;;;;;;;17.90;58.96;99632.75;1086903;54;20030;-81
2023/06/08 01:43:37;;;;;;;4.85;2.90;;;;;;;17.94;58.89;99634.00;1087286;54;20053;-85
2023/06/08 01:44:46;;;;;;;5.88;3.13;;;;;;;17.91;58.78;99637.94;1087057;47;20068;-83
2023/06/08 01:45:53;;;;;;;4.55;2.88;;;;;;;17.94;58.94;99634.00;1087136;54;20067;-85
2023/06/08 01:46:58;;;;;;;4.80;3.40;;;;;;;17.98;58.55;99639.84;1087461;54;20036;-84
2023/06/08 01:48:05;;;;;;;4.85;3.08;;;;;;;17.99;58.49;99641.53;1087070;46;20037;-84
2023/06/08 01:49:10;;;;;;;4.05;2.72;;;;;;;18.04;58.65;99639.06;1087514;54;20034;-84
2023/06/08 01:50:11;;;;;;;5.63;3.00;;;;;;;18.06;58.65;99643.22;1087260;47;20098;-86
2023/06/08 01:51:17;;;;;;;4.93;2.83;;;;;;;18.04;58.70;99644.47;1088379;39;20350;-83
2023/06/08 01:52:20;;;;;;;4.40;2.83;;;;;;;17.96;59.33;99639.19;1087138;47;20031;-85
2023/06/08 01:53:24;;;;;;;6.05;3.15;;;;;;;17.90;59.15;99632.75;1087173;47;20038;-84
2023/06/08 01:54:25;;;;;;;5.80;3.90;;;;;;;17.89;59.55;99637.31;1087313;46;20060;-82
2023/06/08 01:55:32;;;;;;;6.28;3.50;;;;;;;17.87;59.42;99639.38;1087390;47;20063;-84
2023/06/08 01:56:35;;;;;;;5.13;3.25;;;;;;;17.89;59.64;99631.88;1087144;47;20022;-84
2023/06/08 01:57:39;;;;;;;5.15;3.28;;;;;;;17.93;59.53;99638.56;1087134;46;20034;-85
2023/06/08 01:58:40;;;;;;;5.55;3.63;;;;;;;17.88;59.69;99638.34;1086900;47;20123;-83
2023/06/08 01:59:44;;;;;;;5.65;3.72;;;;;;;17.84;60.23;99642.50;1087059;47;20038;-82
2023/06/08 02:00:45;;;;;;;5.78;3.67;;;;;;;17.86;60.48;99640.41;1086995;54;20023;-83
2023/06/08 02:01:49;;;;;;;5.38;3.53;;;;;;;17.89;60.31;99637.31;1087007;47;20030;-83
2023/06/08 02:02:50;;;;;;;7.07;4.15;;;;;;;17.75;61.14;99633.72;1086919;46;20166;-85
2023/06/08 02:03:54;;;;;;;5.28;3.97;;;;;;;17.75;61.22;99635.59;1086906;47;20082;-83
2023/06/08 02:04:57;;;;;;;5.60;4.18;;;;;;;17.81;61.08;99633.94;1087032;54;20063;-84
2023/06/08 02:06:02;;;;;;;5.75;3.63;;;;;;;17.81;60.87;99621.25;1086817;47;20027;-82
2023/06/08 02:07:07;;;;;;;5.35;3.67;;;;;;;17.85;61.05;99632.50;1087359;54;20086;-85
2023/06/08 02:08:11;;;;;;;5.40;3.75;;;;;;;17.85;60.99;99633.34;1087296;47;20090;-86
2023/06/08 02:09:12;;;;;;;5.90;3.65;;;;;;;17.91;60.94;99628.97;1087535;54;20035;-84
2023/06/08 02:10:16;;;;;;;4.93;3.60;;;;;;;17.96;60.85;99626.53;1087438;47;20086;-83
2023/06/08 02:11:21;;;;;;;5.90;3.97;;;;;;;17.97;61.11;99627.38;1087141;47;20026;-84
2023/06/08 02:12:25;;;;;;;5.20;3.67;;;;;;;17.97;61.17;99630.91;1087095;47;20033;-84
2023/06/08 02:13:26;;;;;;;5.32;4.00;;;;;;;17.91;61.32;99635.22;1087023;47;20453;-82
2023/06/08 02:14:29;;;;;;;7.35;4.47;;;;;;;17.79;62.22;99631.44;1087057;47;20637;-84
2023/06/08 02:15:30;;;;;;;7.38;4.03;;;;;;;17.81;62.11;99629.38;1087029;54;20042;-82
2023/06/08 02:16:35;;;;;;;5.97;4.47;;;;;;;17.80;62.38;99629.59;1086716;47;20035;-84
2023/06/08 02:17:36;;;;;;;6.55;4.03;;;;;;;17.77;62.31;99623.53;1085964;46;20038;-83
2023/06/08 02:18:41;;;;;;;6.45;4.22;;;;;;;17.73;62.28;99630.38;1086744;46;20033;-85
2023/06/08 02:19:42;;;;;;;7.28;4.50;;;;;;;17.65;62.76;99625.16;1086429;47;20030;-83
2023/06/08 02:20:46;;;;;;;5.97;4.30;;;;;;;17.68;63.29;99634.72;1086650;54;20082;-84
2023/06/08 02:21:47;;;;;;;5.00;4.05;;;;;;;17.68;62.84;99627.47;1086844;47;20094;-84
2023/06/08 02:22:54;;;;;;;5.22;3.88;;;;;;;17.69;62.76;99630.97;1086913;47;20026;-83
2023/06/08 02:23:55;;;;;;;5.85;4.22;;;;;;;17.67;63.10;99627.63;1086994;47;20034;-84
2023/06/08 02:24:59;;;;;;;6.78;4.47;;;;;;;17.67;62.97;99622.22;1087043;47;20056;-84
2023/06/08 02:26:00;;;;;;;4.93;3.70;;;;;;;17.70;62.80;99632.66;1087005;47;20022;-84
2023/06/08 02:27:38;;;;;;;5.82;3.75;;;;;;;17.66;63.95;99621.41;1087183;47;20045;-85
2023/06/08 02:28:39;;;;;;;6.15;3.90;;;;;;;17.70;62.88;99627.25;1086967;47;20034;-87
2023/06/08 02:29:44;;;;;;;5.38;3.97;;;;;;;17.64;62.89;99628.06;1087140;54;20050;-83
2023/06/08 02:30:45;;;;;;;4.57;3.40;;;;;;;17.64;63.19;99630.75;1086862;47;20022;-84
2023/06/08 02:31:49;;;;;;;7.03;4.20;;;;;;;17.62;63.31;99630.94;1086934;47;20027;-83
2023/06/08 02:32:53;;;;;;;5.40;3.78;;;;;;;17.66;63.20;99634.09;1086898;47;20030;-82
2023/06/08 02:33:58;;;;;;;4.85;3.72;;;;;;;17.66;63.21;99634.94;1086740;46;20034;-82
2023/06/08 02:35:00;;;;;;;5.82;4.35;;;;;;;17.64;63.08;99636.16;1087040;46;20049;-84
2023/06/08 02:36:06;;;;;;;7.25;4.00;;;;;;;17.46;63.82;99637.53;1086944;47;20030;-84
2023/06/08 02:37:08;;;;;;;5.25;3.78;;;;;;;17.32;64.05;99636.63;1086764;47;20065;-82
2023/06/08 02:38:13;;;;;;;6.85;4.32;;;;;;;17.23;64.08;99644.06;1086867;46;20030;-85
2023/06/08 02:39:15;;;;;;;7.20;4.40;;;;;;;17.17;64.47;99642.16;1086619;47;20075;-85
2023/06/08 02:40:19;;;;;;;5.90;4.05;;;;;;;17.11;64.56;99641.06;1086914;54;20042;-87
2023/06/08 02:41:20;;;;;;;6.35;4.32;;;;;;;17.03;65.04;99643.06;1087031;47;20034;-86
2023/06/08 02:42:27;;;;;;;6.90;4.38;;;;;;;16.98;65.34;99651.78;1086933;47;20122;-83
2023/06/08 02:43:28;;;;;;;7.38;4.40;;;;;;;16.95;65.02;99647.59;1086202;46;20073;-83
2023/06/08 02:44:32;;;;;;;6.05;4.25;;;;;;;16.95;65.13;99642.19;1086289;54;20749;-82
2023/06/08 02:45:34;;;;;;;7.75;4.20;;;;;;;17.06;64.80;99642.69;1086249;54;20057;-82
2023/06/08 02:46:39;;;;;;;7.20;4.18;;;;;;;17.06;64.76;99638.13;1086217;47;20123;-82
2023/06/08 02:47:41;;;;;;;7.28;4.35;;;;;;;17.05;65.00;99633.75;1086110;47;20034;-82
2023/06/08 02:48:45;;;;;;;5.78;3.90;;;;;;;17.08;64.87;99636.06;1086883;54;20726;-83
2023/06/08 02:49:46;;;;;;;5.63;4.07;;;;;;;17.06;65.07;99637.28;1087007;47;20032;-86
2023/06/08 02:50:50;;;;;;;5.40;4.18;;;;;;;17.08;65.05;99641.47;1086877;54;20046;-85
2023/06/08 02:51:52;;;;;;;6.10;4.00;;;;;;;17.11;64.82;99630.28;1087067;54;20034;-83
2023/06/08 02:52:55;;;;;;;5.88;3.70;;;;;;;17.13;64.48;99639.03;1086856;47;20027;-84
2023/06/08 02:53:57;;;;;;;5.32;3.88;;;;;;;17.17;64.42;99633.19;1086948;47;20082;-83
2023/06/08 02:55:01;;;;;;;5.90;3.90;;;;;;;17.19;64.41;99631.13;1086939;54;20034;-84
2023/06/08 02:56:02;;;;;;;5.32;3.92;;;;;;;17.21;64.22;99640.72;1086848;54;20886;-86
2023/06/08 02:57:08;;;;;;;5.38;3.80;;;;;;;17.17;64.41;99635.91;1087221;47;20034;-86
2023/06/08 02:58:20;;;;;;;5.53;3.83;;;;;;;17.11;64.29;99637.53;1087427;47;20030;-84
2023/06/08 02:59:24;;;;;;;6.22;4.68;;;;;;;16.99;64.68;99632.69;1087283;47;20038;-86
2023/06/08 03:00:27;;;;;;;8.18;4.40;;;;;;;16.86;65.34;99639.81;1087415;47;20030;-84
2023/06/08 03:01:52;;;;;;;5.88;4.40;;;;;;;16.80;65.42;99638.75;1087450;47;20055;-84
2023/06/08 03:02:56;;;;;;;6.45;4.68;;;;;;;16.78;65.53;99633.53;1087374;47;20026;-85
2023/06/08 03:04:00;;;;;;;5.57;4.07;;;;;;;16.74;65.41;99634.97;1087370;47;20035;-84
2023/06/08 03:05:08;;;;;;;6.75;3.90;;;;;;;16.76;65.47;99637.44;1087090;47;20037;-83
2023/06/08 03:06:17;;;;;;;5.60;4.15;;;;;;;16.76;65.33;99632.91;1087230;47;20026;-86
2023/06/08 03:07:20;;;;;;;5.78;4.15;;;;;;;16.80;65.52;99633.34;1087298;47;20022;-85
2023/06/08 03:08:31;;;;;;;6.80;4.20;;;;;;;16.89;64.91;99629.47;1087231;47;20030;-85
2023/06/08 03:09:32;;;;;;;5.65;3.97;;;;;;;16.95;64.84;99641.38;1087082;47;20067;-82
2023/06/08 03:10:39;;;;;;;5.05;3.47;;;;;;;16.94;64.96;99639.72;1087031;47;20022;-85
2023/06/08 03:11:43;;;;;;;5.50;3.80;;;;;;;16.96;64.83;99638.47;1087109;47;20030;-85
2023/06/08 03:12:49;;;;;;;5.15;3.50;;;;;;;16.96;64.84;99635.78;1087205;47;20033;-84
2023/06/08 03:13:53;;;;;;;5.65;3.78;;;;;;;17.00;64.88;99633.50;1087191;47;20105;-84
2023/06/08 03:14:58;;;;;;;5.85;3.75;;;;;;;16.99;64.74;99632.69;1087678;39;20706;-84
2023/06/08 03:16:01;;;;;;;6.10;4.15;;;;;;;16.95;65.26;99628.69;1087235;54;20082;-84
2023/06/08 03:17:07;;;;;;;7.05;4.13;;;;;;;16.98;65.11;99639.13;1087239;47;20026;-84
2023/06/08 03:18:11;;;;;;;5.18;3.40;;;;;;;17.04;64.72;99634.81;1087178;47;20030;-85
2023/06/08 03:19:16;;;;;;;5.57;4.00;;;;;;;17.06;64.83;99637.28;1087441;47;20042;-87
2023/06/08 03:20:20;;;;;;;5.25;3.50;;;;;;;17.11;64.52;99635.69;1087279;47;20034;-86
2023/06/08 03:21:36;;;;;;;5.13;3.55;;;;;;;17.11;64.36;99630.28;1087178;47;20011;-85
2023/06/08 03:22:41;;;;;;;6.07;3.92;;;;;;;17.10;64.30;99631.31;1087277;47;20022;-84
2023/06/08 03:23:48;;;;;;;4.60;3.20;;;;;;;17.17;63.99;99634.06;1087224;47;20094;-85
2023/06/08 03:24:52;;;;;;;5.05;3.28;;;;;;;17.17;64.21;99639.44;1087314;47;20185;-85
2023/06/08 03:25:59;;;;;;;5.05;3.55;;;;;;;17.19;63.82;99634.69;1087074;47;20116;-85
2023/06/08 03:27:01;;;;;;;4.75;3.42;;;;;;;17.23;63.98;99640.53;1087204;47;20189;-87
2023/06/08 03:28:07;;;;;;;4.43;3.25;;;;;;;17.23;63.75;99632.44;1087094;47;20023;-84
2023/06/08 03:29:11;;;;;;;4.75;3.25;;;;;;;17.27;63.59;99629.13;1087142;47;20034;-85
2023/06/08 03:30:17;;;;;;;4.65;3.20;;;;;;;17.28;63.84;99633.50;1087076;47;20026;-85
2023/06/08 03:31:36;;;;;;;4.40;2.90;;;;;;;17.27;63.72;99631.84;1087126;47;20026;-85
2023/06/08 03:32:49;;;;;;;5.95;3.92;;;;;;;17.09;64.50;99636.91;1087365;47;20046;-85
2023/06/08 03:33:53;;;;;;;5.55;4.10;;;;;;;17.09;64.33;99636.91;1087298;47;20042;-86
2023/06/08 03:34:58;;;;;;;6.93;4.47;;;;;;;17.04;64.77;99636.66;1087400;47;20059;-88
2023/06/08 03:48:57;;;;;;;9.07;5.38;;;;;;;15.77;69.22;99657.78;1087062;54;20034;-85
2023/06/08 03:50:33;;;;;;;7.72;5.10;;;;;;;15.74;69.25;99657.16;1088209;39;20774;-84
2023/06/08 03:51:37;;;;;;;8.07;5.50;;;;;;;15.74;69.43;99662.53;1087222;47;20022;-84
2023/06/08 03:52:43;;;;;;;7.82;5.20;;;;;;;15.72;69.29;99655.66;1087335;47;20777;-83
2023/06/08 03:53:44;;;;;;;7.20;4.80;;;;;;;15.79;69.45;99658.41;1087435;47;20026;-84
2023/06/08 03:54:48;;;;;;;7.88;4.85;;;;;;;15.78;69.13;99657.59;1087686;47;20044;-84
2023/06/08 03:55:52;;;;;;;6.25;4.78;;;;;;;15.77;69.11;99661.31;1087685;47;20046;-84
2023/06/08 03:56:56;;;;;;;7.63;5.32;;;;;;;15.68;69.65;99657.06;1087663;47;20028;-84
2023/06/08 03:57:58;;;;;;;7.57;4.90;;;;;;;15.67;69.85;99658.06;1087422;47;20097;-85
2023/06/08 03:59:04;;;;;;;7.70;4.80;;;;;;;15.71;69.48;99662.91;1090027;46;20361;-84
2023/06/08 04:00:11;;;;;;;6.97;5.28;;;;;;;15.66;69.82;99656.41;1087843;47;20026;-85
2023/06/08 04:01:18;;;;;;;8.93;4.95;;;;;;;15.64;69.62;99655.75;1087795;54;20086;-86
2023/06/08 04:02:20;;;;;;;9.75;5.38;;;;;;;15.55;70.24;99665.81;1090599;39;20890;-84
2023/06/08 04:03:25;;;;;;;7.22;4.95;;;;;;;15.54;70.09;99659.56;1087469;47;20078;-85
2023/06/08 04:04:29;;;;;;;8.98;4.90;;;;;;;15.58;69.99;99662.75;1087948;47;20057;-84
2023/06/08 04:06:38;;;;;;;8.00;5.43;;;;;;;15.58;69.85;99658.19;1088551;39;20704;-87
2023/06/08 04:08:57;;;;;;;8.50;5.40;;;;;;;15.55;70.52;99668.50;1088606;39;20678;-83
2023/06/08 04:09:59;;;;;;;8.82;5.50;;;;;;;15.52;70.68;99663.47;1087840;47;20431;-84
2023/06/08 04:11:03;;;;;;;7.45;5.20;;;;;;;15.48;70.67;99664.88;1087574;47;20061;-86
2023/06/08 04:12:06;;;;;;;7.78;5.63;;;;;;;15.48;70.81;99657.63;1087689;47;20053;-84
2023/06/08 04:13:11;;;;;;;9.05;5.53;;;;;;;15.47;70.96;99663.19;1087841;46;20031;-86
2023/06/08 04:14:13;;;;;;;8.20;5.13;;;;;;;15.39;71.23;99664.97;1087570;47;20644;-84
2023/06/08 04:15:18;;;;;;;7.88;5.93;;;;;;;15.37;71.12;99661.63;1087539;47;20022;-84
2023/06/08 04:16:19;;;;;;;7.53;5.40;;;;;;;15.39;71.22;99670.38;1087965;47;20038;-86
2023/06/08 04:17:30;;;;;;;9.35;6.35;;;;;;;15.41;71.29;99673.69;1088152;47;20046;-85
2023/06/08 04:18:31;;;;;;;7.43;4.90;;;;;;;15.50;70.95;99657.44;1088062;47;20046;-84
2023/06/08 04:19:38;;;;;;;5.82;4.80;;;;;;;15.57;70.80;99658.38;1088325;46;20022;-87
2023/06/08 04:20:40;;;;;;;8.48;4.88;;;;;;;15.57;70.63;99661.06;1088369;46;20026;-85
2023/06/08 04:21:45;;;;;;;9.25;4.90;;;;;;;15.55;70.57;99657.72;1087871;46;20620;-83
2023/06/08 04:22:47;;;;;;;7.65;5.10;;;;;;;15.57;70.65;99658.38;1088095;46;20033;-83
2023/06/08 04:23:52;;;;;;;7.18;5.05;;;;;;;15.63;70.61;99660.31;1088444;46;20028;-85
2023/06/08 04:25:00;;;;;;;6.60;4.93;;;;;;;15.67;70.19;99661.63;1088233;47;20022;-85
2023/06/08 04:26:04;;;;;;;7.35;4.57;;;;;;;15.69;70.35;99664.94;1088306;47;20030;-84
2023/06/08 04:27:07;;;;;;;7.32;5.45;;;;;;;15.74;69.86;99657.16;1088405;47;20007;-86
2023/06/08 04:28:12;;;;;;;7.85;5.32;;;;;;;15.74;69.94;99662.53;1088709;46;20049;-85
2023/06/08 04:30:19;;;;;;;10.00;5.50;;;;;;;15.83;69.66;99654.34;1088289;54;20034;-80
2023/06/08 04:32:32;;;;;;;7.50;5.43;;;;;;;15.87;69.88;99661.06;1074012;47;20026;31
2023/06/08 04:34:50;;;;;;;6.32;4.63;;;;;;;15.95;69.70;99660.09;1081137;54;20887;31
2023/06/08 04:35:56;;;;;;;6.45;4.65;;;;;;;16.01;69.21;99651.28;1072780;46;20064;31
2023/06/08 04:53:42;;;;;;;7.28;6.03;;;;;;;16.75;67.57;99654.66;1087471;54;20019;-83
2023/06/08 04:54:46;;;;;;;9.25;6.38;;;;;;;16.75;67.40;99655.53;1087429;54;20030;-83
2023/06/08 04:55:57;;;;;;;7.00;6.18;;;;;;;16.77;67.66;99652.63;1086934;47;20030;-78
2023/06/08 04:56:58;;;;;;;7.80;5.90;;;;;;;16.84;67.41;99650.81;1085444;54;20063;-80
2023/06/08 04:58:04;;;;;;;7.38;6.25;;;;;;;16.87;67.54;99649.56;1084704;47;20781;-78
2023/06/08 04:59:06;;;;;;;7.10;6.28;;;;;;;16.91;67.31;99662.47;1083668;54;20026;-77
2023/06/08 05:00:14;;;;;;;8.18;6.45;;;;;;;16.96;67.30;99651.97;1083789;46;20938;-79
2023/06/08 05:01:19;;;;;;;6.90;6.20;;;;;;;17.07;66.95;99660.56;1083918;47;20030;-79
2023/06/08 05:02:23;;;;;;;7.93;6.60;;;;;;;17.13;66.77;99655.22;1083969;47;20038;-78
2023/06/08 05:03:25;;;;;;;7.72;6.40;;;;;;;17.20;66.78;99652.53;1084230;47;20038;-79
2023/06/08 05:04:29;;;;;;;7.60;6.60;;;;;;;17.28;66.42;99655.13;1084788;54;20060;-80
2023/06/08 05:05:31;;;;;;;6.65;5.20;;;;;;;17.37;66.16;99658.47;1084043;47;20094;-78
2023/06/08 05:06:35;;;;;;;7.88;5.85;;;;;;;17.34;66.50;99658.03;1084231;54;20038;-76
2023/06/08 05:07:38;;;;;;;6.85;5.63;;;;;;;17.41;66.44;99661.59;1084685;46;20062;-79
2023/06/08 05:08:45;;;;;;;10.90;7.10;;;;;;;17.41;66.37;99664.31;1083089;54;20201;-77
2023/06/08 05:09:48;;;;;;;10.38;8.20;;;;;;;17.30;66.77;99676.50;1085013;39;20605;-79
2023/06/08 05:10:56;;;;;;;10.23;8.55;;;;;;;17.15;67.79;99663.13;1086044;54;20045;-81
2023/06/08 05:11:59;;;;;;;10.82;8.75;;;;;;;17.14;67.73;99666.84;1086346;54;20042;-81
2023/06/08 05:13:03;;;;;;;13.40;8.52;;;;;;;17.18;67.70;99667.28;1084395;54;20038;-77
2023/06/08 05:14:05;;;;;;;9.73;8.23;;;;;;;17.07;68.08;99666.78;1085541;39;20350;-78
2023/06/08 05:15:10;;;;;;;9.85;8.68;;;;;;;17.17;68.19;99663.75;1083964;46;20040;-80
2023/06/08 05:16:12;;;;;;;9.13;8.20;;;;;;;17.17;67.87;99663.75;1085725;54;20026;-79
2023/06/08 05:19:04;;;;;;;9.20;8.20;;;;;;;17.20;67.84;99668.75;1086810;39;20735;-83
2023/06/08 05:20:14;;;;;;;12.55;8.18;;;;;;;17.22;68.09;99669.38;1084912;47;20046;-80
2023/06/08 05:21:20;;;;;;;8.98;7.85;;;;;;;17.30;67.67;99660.31;1085108;54;20046;-80
2023/06/08 05:22:22;;;;;;;9.13;8.05;;;;;;;17.28;67.57;99671.31;1085555;54;20030;-79
2023/06/08 05:23:26;;;;;;;8.90;8.00;;;;;;;17.37;67.58;99666.56;1084546;47;20451;-78
2023/06/08 05:24:31;;;;;;;12.48;8.52;;;;;;;17.41;67.61;99664.31;1083866;54;20034;-81
2023/06/08 05:25:37;;;;;;;9.52;8.38;;;;;;;17.44;67.39;99670.16;1086296;47;20026;-82
2023/06/08 05:26:42;;;;;;;8.80;7.60;;;;;;;17.48;67.12;99662.47;1086723;54;20040;-86
2023/06/08 05:27:45;;;;;;;10.70;8.93;;;;;;;17.51;67.32;99669.38;1086803;47;21061;-87
2023/06/08 05:28:50;;;;;;;9.15;8.25;;;;;;;17.57;67.22;99671.25;1086757;47;20034;-82
2023/06/08 05:29:52;;;;;;;9.68;8.52;;;;;;;17.54;66.84;99667.09;1086356;54;20035;-83
2023/06/08 05:30:56;;;;;;;11.45;8.02;;;;;;;17.71;66.38;99669.47;1086543;47;20034;-86
2023/06/08 05:31:57;;;;;;;8.05;6.45;;;;;;;17.83;66.14;99665.16;1087319;39;20769;-80
2023/06/08 05:33:02;;;;;;;9.73;8.57;;;;;;;17.76;66.26;99665.13;1086594;47;20114;-82
2023/06/08 05:34:03;;;;;;;8.60;7.40;;;;;;;17.80;66.34;99672.84;1087814;54;20030;-81
2023/06/08 05:35:10;;;;;;;8.95;8.00;;;;;;;17.78;66.27;99673.03;1094942;39;20396;-83
2023/06/08 05:36:12;;;;;;;8.40;7.38;;;;;;;17.80;66.20;99675.53;1087390;47;20030;-85
2023/06/08 05:37:17;;;;;;;7.90;7.03;;;;;;;17.83;65.92;99673.25;1086576;47;20094;-86
2023/06/08 05:38:19;;;;;;;8.57;7.40;;;;;;;17.90;65.90;99662.47;1086396;47;20019;-85
2023/06/08 05:39:24;;;;;;;8.60;7.20;;;;;;;17.96;65.42;99671.63;1086889;47;20026;-83
2023/06/08 05:40:28;;;;;;;9.05;7.28;;;;;;;17.89;65.81;99675.16;1086791;47;20034;-83
2023/06/08 05:41:33;;;;;;;8.70;7.20;;;;;;;17.95;65.63;99668.09;1086715;47;20026;-83
2023/06/08 05:42:34;;;;;;;7.90;6.75;;;;;;;18.03;65.17;99667.94;1086957;54;20751;-85